Airport View

Enter AWOS ICAO identifier for current METAR.

ex. KFNL

KCMY 171150Z AUTO 00000KT 10SM CLR 02/M01 A2997 RMK AO2 T00151010 10021 20015

17 Nov 2019 11:55

Frequency: 119.775

Phone: 608-269-0724

Other Area AWOS: KBCK - KVOK - KLSE - KY51

TAF KVOK 151700Z 1517/1623 VRB06KT 9999 FEW020 QNH3029INS BECMG 1607/1608 12006KT 9999 SCT015 QNH3032INS BECMG 1615/1616 15012G18KT 9999 SCT018 QNH3016INS BECMG 1621/1622 16009KT 9999 BKN012 620122 QNH3019INS TX05/1520Z TNM02/1608Z LAST NO AMDS AFT 1522 NEXT 1809